sensor_id;sensor_type;location;lat;lon;timestamp;temperature;humidity
29813;DHT22;16707;48.106;11.548;2023-04-25T00:02:19;7.50;99.90
29813;DHT22;16707;48.106;11.548;2023-04-25T00:04:47;7.60;99.90
29813;DHT22;16707;48.106;11.548;2023-04-25T00:07:15;7.60;99.90
29813;DHT22;16707;48.106;11.548;2023-04-25T00:09:42;7.70;99.90
29813;DHT22;16707;48.106;11.548;2023-04-25T00:12:09;7.70;99.90
29813;DHT22;16707;48.106;11.548;2023-04-25T00:14:45;7.70;99.90
29813;DHT22;16707;48.106;11.548;2023-04-25T00:17:19;7.80;99.90
29813;DHT22;16707;48.106;11.548;2023-04-25T00:19:49;7.70;99.90
29813;DHT22;16707;48.106;11.548;2023-04-25T00:22:16;7.80;99.90
29813;DHT22;16707;48.106;11.548;2023-04-25T00:24:49;7.80;99.90
29813;DHT22;16707;48.106;11.548;2023-04-25T00:27:16;7.80;99.90
29813;DHT22;16707;48.106;11.548;2023-04-25T00:29:46;7.80;99.90
29813;DHT22;16707;48.106;11.548;2023-04-25T00:32:15;7.80;99.90
29813;DHT22;16707;48.106;11.548;2023-04-25T00:34:43;7.80;99.90
29813;DHT22;16707;48.106;11.548;2023-04-25T00:37:12;7.80;99.90
29813;DHT22;16707;48.106;11.548;2023-04-25T00:39:39;7.80;99.90
29813;DHT22;16707;48.106;11.548;2023-04-25T00:42:06;7.80;99.90
29813;DHT22;16707;48.106;11.548;2023-04-25T00:44:41;7.70;99.90
29813;DHT22;16707;48.106;11.548;2023-04-25T00:47:14;7.50;99.90
29813;DHT22;16707;48.106;11.548;2023-04-25T00:49:41;7.40;99.90
29813;DHT22;16707;48.106;11.548;2023-04-25T00:52:08;7.40;99.90
29813;DHT22;16707;48.106;11.548;2023-04-25T00:54:37;7.30;99.90
29813;DHT22;16707;48.106;11.548;2023-04-25T00:57:05;7.20;99.90
29813;DHT22;16707;48.106;11.548;2023-04-25T00:59:32;7.20;99.90
29813;DHT22;16707;48.106;11.548;2023-04-25T01:02:02;7.10;99.90
29813;DHT22;16707;48.106;11.548;2023-04-25T01:04:29;7.10;99.90
29813;DHT22;16707;48.106;11.548;2023-04-25T01:06:57;7.00;99.90
29813;DHT22;16707;48.106;11.548;2023-04-25T01:09:27;6.80;99.90
29813;DHT22;16707;48.106;11.548;2023-04-25T01:11:59;6.70;99.90
29813;DHT22;16707;48.106;11.548;2023-04-25T01:14:29;6.70;99.90
29813;DHT22;16707;48.106;11.548;2023-04-25T01:16:57;6.80;99.90
29813;DHT22;16707;48.106;11.548;2023-04-25T01:19:31;6.80;99.90
29813;DHT22;16707;48.106;11.548;2023-04-25T01:22:00;6.90;99.90
29813;DHT22;16707;48.106;11.548;2023-04-25T01:24:33;7.00;99.90
29813;DHT22;16707;48.106;11.548;2023-04-25T01:27:12;7.00;99.90
29813;DHT22;16707;48.106;11.548;2023-04-25T01:29:42;7.00;99.90
29813;DHT22;16707;48.106;11.548;2023-04-25T01:32:13;6.90;99.90
29813;DHT22;16707;48.106;11.548;2023-04-25T01:34:40;6.90;99.90
29813;DHT22;16707;48.106;11.548;2023-04-25T01:37:11;6.90;99.90
29813;DHT22;16707;48.106;11.548;2023-04-25T01:39:38;6.90;99.90
29813;DHT22;16707;48.106;11.548;2023-04-25T01:42:06;6.90;99.90
29813;DHT22;16707;48.106;11.548;2023-04-25T01:44:33;6.90;99.90
29813;DHT22;16707;48.106;11.548;2023-04-25T01:47:02;6.70;99.90
29813;DHT22;16707;48.106;11.548;2023-04-25T01:49:29;6.70;99.90
29813;DHT22;16707;48.106;11.548;2023-04-25T01:52:02;6.60;99.90
29813;DHT22;16707;48.106;11.548;2023-04-25T01:54:31;6.50;99.90
29813;DHT22;16707;48.106;11.548;2023-04-25T01:57:01;6.40;99.90
29813;DHT22;16707;48.106;11.548;2023-04-25T01:59:29;6.20;99.90
29813;DHT22;16707;48.106;11.548;2023-04-25T02:02:01;6.10;99.90
29813;DHT22;16707;48.106;11.548;2023-04-25T02:04:32;6.00;99.90
29813;DHT22;16707;48.106;11.548;2023-04-25T02:06:59;5.90;99.90
29813;DHT22;16707;48.106;11.548;2023-04-25T02:09:26;5.90;99.90
29813;DHT22;16707;48.106;11.548;2023-04-25T02:11:58;6.00;99.90
29813;DHT22;16707;48.106;11.548;2023-04-25T02:14:28;5.90;99.90
29813;DHT22;16707;48.106;11.548;2023-04-25T02:17:03;5.90;99.90
29813;DHT22;16707;48.106;11.548;2023-04-25T02:19:37;5.80;99.90
29813;DHT22;16707;48.106;11.548;2023-04-25T02:22:10;5.70;99.90
29813;DHT22;16707;48.106;11.548;2023-04-25T02:24:52;5.70;99.90
29813;DHT22;16707;48.106;11.548;2023-04-25T02:27:27;5.80;99.90
29813;DHT22;16707;48.106;11.548;2023-04-25T02:30:00;5.90;99.90
29813;DHT22;16707;48.106;11.548;2023-04-25T02:35:01;6.10;99.90
29813;DHT22;16707;48.106;11.548;2023-04-25T02:37:30;6.20;99.90
29813;DHT22;16707;48.106;11.548;2023-04-25T02:40:06;6.50;99.90
29813;DHT22;16707;48.106;11.548;2023-04-25T02:42:35;6.50;99.90
29813;DHT22;16707;48.106;11.548;2023-04-25T02:45:03;6.60;99.90
29813;DHT22;16707;48.106;11.548;2023-04-25T02:47:36;6.70;99.90
29813;DHT22;16707;48.106;11.548;2023-04-25T02:50:06;6.80;99.90
29813;DHT22;16707;48.106;11.548;2023-04-25T02:52:33;6.80;99.90
29813;DHT22;16707;48.106;11.548;2023-04-25T02:55:00;6.90;99.90
29813;DHT22;16707;48.106;11.548;2023-04-25T02:57:30;6.90;99.90
29813;DHT22;16707;48.106;11.548;2023-04-25T03:00:08;7.00;99.90
29813;DHT22;16707;48.106;11.548;2023-04-25T03:02:40;7.10;99.90
29813;DHT22;16707;48.106;11.548;2023-04-25T03:05:12;7.20;99.90
29813;DHT22;16707;48.106;11.548;2023-04-25T03:07:39;7.30;99.90
29813;DHT22;16707;48.106;11.548;2023-04-25T03:10:07;7.40;99.90
29813;DHT22;16707;48.106;11.548;2023-04-25T03:12:37;7.50;99.90
29813;DHT22;16707;48.106;11.548;2023-04-25T03:15:07;7.60;99.90
29813;DHT22;16707;48.106;11.548;2023-04-25T03:17:34;7.70;99.90
29813;DHT22;16707;48.106;11.548;2023-04-25T03:20:01;7.60;99.90
29813;DHT22;16707;48.106;11.548;2023-04-25T03:22:29;7.70;99.90
29813;DHT22;16707;48.106;11.548;2023-04-25T03:24:56;7.60;99.90
29813;DHT22;16707;48.106;11.548;2023-04-25T03:27:23;7.60;99.90
29813;DHT22;16707;48.106;11.548;2023-04-25T03:29:50;7.60;99.90
29813;DHT22;16707;48.106;11.548;2023-04-25T03:32:19;7.50;99.90
29813;DHT22;16707;48.106;11.548;2023-04-25T03:34:48;7.50;99.90
29813;DHT22;16707;48.106;11.548;2023-04-25T03:37:18;7.50;99.90
29813;DHT22;16707;48.106;11.548;2023-04-25T03:39:45;7.40;99.90
29813;DHT22;16707;48.106;11.548;2023-04-25T03:42:16;7.40;99.90
29813;DHT22;16707;48.106;11.548;2023-04-25T03:44:48;7.40;99.90
29813;DHT22;16707;48.106;11.548;2023-04-25T03:47:24;7.20;99.90
29813;DHT22;16707;48.106;11.548;2023-04-25T03:49:54;7.10;99.90
29813;DHT22;16707;48.106;11.548;2023-04-25T03:52:21;7.00;99.90
29813;DHT22;16707;48.106;11.548;2023-04-25T03:54:53;6.90;99.90
29813;DHT22;16707;48.106;11.548;2023-04-25T03:57:23;6.90;99.90
29813;DHT22;16707;48.106;11.548;2023-04-25T03:59:51;6.90;99.90
29813;DHT22;16707;48.106;11.548;2023-04-25T04:02:22;6.90;99.90
29813;DHT22;16707;48.106;11.548;2023-04-25T04:04:51;6.90;99.90
29813;DHT22;16707;48.106;11.548;2023-04-25T04:07:19;6.90;99.90
29813;DHT22;16707;48.106;11.548;2023-04-25T04:09:52;6.90;99.90
29813;DHT22;16707;48.106;11.548;2023-04-25T04:12:25;6.80;99.90
29813;DHT22;16707;48.106;11.548;2023-04-25T04:14:52;6.80;99.90
29813;DHT22;16707;48.106;11.548;2023-04-25T04:17:19;6.70;99.90
29813;DHT22;16707;48.106;11.548;2023-04-25T04:19:47;6.60;99.90
29813;DHT22;16707;48.106;11.548;2023-04-25T04:22:15;6.50;99.90
29813;DHT22;16707;48.106;11.548;2023-04-25T04:24:48;6.40;99.90
29813;DHT22;16707;48.106;11.548;2023-04-25T04:27:15;6.50;99.90
29813;DHT22;16707;48.106;11.548;2023-04-25T04:29:43;6.50;99.90
29813;DHT22;16707;48.106;11.548;2023-04-25T04:32:15;6.50;99.90
29813;DHT22;16707;48.106;11.548;2023-04-25T04:34:42;6.60;99.90
29813;DHT22;16707;48.106;11.548;2023-04-25T04:37:11;6.70;99.90
29813;DHT22;16707;48.106;11.548;2023-04-25T04:39:39;6.70;99.90
29813;DHT22;16707;48.106;11.548;2023-04-25T04:42:06;6.70;99.90
29813;DHT22;16707;48.106;11.548;2023-04-25T04:44:35;6.80;99.90
29813;DHT22;16707;48.106;11.548;2023-04-25T04:47:05;6.80;99.90
29813;DHT22;16707;48.106;11.548;2023-04-25T04:49:32;6.90;99.90
29813;DHT22;16707;48.106;11.548;2023-04-25T04:52:02;6.90;99.90
29813;DHT22;16707;48.106;11.548;2023-04-25T04:54:34;6.90;99.90
29813;DHT22;16707;48.106;11.548;2023-04-25T04:57:12;7.00;99.90
29813;DHT22;16707;48.106;11.548;2023-04-25T04:59:42;7.10;99.90
29813;DHT22;16707;48.106;11.548;2023-04-25T05:02:12;7.10;99.90
29813;DHT22;16707;48.106;11.548;2023-04-25T05:04:39;7.10;99.90
29813;DHT22;16707;48.106;11.548;2023-04-25T05:07:06;7.10;99.90
29813;DHT22;16707;48.106;11.548;2023-04-25T05:09:35;7.50;99.90
29813;DHT22;16707;48.106;11.548;2023-04-25T05:12:05;7.80;99.90
29813;DHT22;16707;48.106;11.548;2023-04-25T05:14:32;8.20;99.90
29813;DHT22;16707;48.106;11.548;2023-04-25T05:17:08;8.50;99.90
29813;DHT22;16707;48.106;11.548;2023-04-25T05:19:35;8.60;99.90
29813;DHT22;16707;48.106;11.548;2023-04-25T05:22:02;8.70;99.90
29813;DHT22;16707;48.106;11.548;2023-04-25T05:24:32;8.50;99.90
29813;DHT22;16707;48.106;11.548;2023-04-25T05:27:08;8.30;99.90
29813;DHT22;16707;48.106;11.548;2023-04-25T05:29:38;8.00;99.90
29813;DHT22;16707;48.106;11.548;2023-04-25T05:32:05;8.00;99.90
29813;DHT22;16707;48.106;11.548;2023-04-25T05:34:35;7.90;99.90
29813;DHT22;16707;48.106;11.548;2023-04-25T05:37:06;8.00;99.90
29813;DHT22;16707;48.106;11.548;2023-04-25T05:39:36;8.00;99.90
29813;DHT22;16707;48.106;11.548;2023-04-25T05:42:04;7.90;99.90
29813;DHT22;16707;48.106;11.548;2023-04-25T05:44:31;8.00;99.90
29813;DHT22;16707;48.106;11.548;2023-04-25T05:46:59;8.20;99.90
29813;DHT22;16707;48.106;11.548;2023-04-25T05:49:26;8.20;99.90
29813;DHT22;16707;48.106;11.548;2023-04-25T05:51:53;8.50;99.90
29813;DHT22;16707;48.106;11.548;2023-04-25T05:54:20;9.00;99.90
29813;DHT22;16707;48.106;11.548;2023-04-25T05:56:47;9.70;99.90
29813;DHT22;16707;48.106;11.548;2023-04-25T05:59:15;9.70;99.90
29813;DHT22;16707;48.106;11.548;2023-04-25T06:01:46;9.40;99.90
29813;DHT22;16707;48.106;11.548;2023-04-25T06:04:13;8.80;99.90
29813;DHT22;16707;48.106;11.548;2023-04-25T06:06:40;8.40;99.90
29813;DHT22;16707;48.106;11.548;2023-04-25T06:09:07;8.10;99.90
29813;DHT22;16707;48.106;11.548;2023-04-25T06:11:37;7.80;99.90
29813;DHT22;16707;48.106;11.548;2023-04-25T06:14:06;7.30;99.90
29813;DHT22;16707;48.106;11.548;2023-04-25T06:16:34;7.10;99.90
29813;DHT22;16707;48.106;11.548;2023-04-25T06:19:01;6.90;99.90
29813;DHT22;16707;48.106;11.548;2023-04-25T06:21:28;6.80;99.90
29813;DHT22;16707;48.106;11.548;2023-04-25T06:23:57;6.90;99.90
29813;DHT22;16707;48.106;11.548;2023-04-25T06:26:24;6.90;99.90
29813;DHT22;16707;48.106;11.548;2023-04-25T06:28:51;7.00;99.90
29813;DHT22;16707;48.106;11.548;2023-04-25T06:31:18;7.00;99.90
29813;DHT22;16707;48.106;11.548;2023-04-25T06:33:46;7.00;99.90
29813;DHT22;16707;48.106;11.548;2023-04-25T06:36:13;7.10;99.90
29813;DHT22;16707;48.106;11.548;2023-04-25T06:38:40;7.30;99.90
29813;DHT22;16707;48.106;11.548;2023-04-25T06:41:08;7.70;99.90
29813;DHT22;16707;48.106;11.548;2023-04-25T06:43:35;8.40;99.90
29813;DHT22;16707;48.106;11.548;2023-04-25T06:46:06;8.70;99.90
29813;DHT22;16707;48.106;11.548;2023-04-25T06:48:38;8.90;99.90
29813;DHT22;16707;48.106;11.548;2023-04-25T06:51:07;9.20;99.90
29813;DHT22;16707;48.106;11.548;2023-04-25T06:53:34;9.40;99.90
29813;DHT22;16707;48.106;11.548;2023-04-25T06:56:01;10.10;99.90
29813;DHT22;16707;48.106;11.548;2023-04-25T06:58:28;10.50;99.90
29813;DHT22;16707;48.106;11.548;2023-04-25T07:00:55;11.20;99.90
29813;DHT22;16707;48.106;11.548;2023-04-25T07:03:22;10.80;99.90
29813;DHT22;16707;48.106;11.548;2023-04-25T07:05:50;10.30;99.90
29813;DHT22;16707;48.106;11.548;2023-04-25T07:08:21;10.10;99.90
29813;DHT22;16707;48.106;11.548;2023-04-25T07:10:48;9.70;99.90
29813;DHT22;16707;48.106;11.548;2023-04-25T07:13:16;9.60;99.90
29813;DHT22;16707;48.106;11.548;2023-04-25T07:15:43;9.40;99.90
29813;DHT22;16707;48.106;11.548;2023-04-25T07:18:11;9.20;99.90
29813;DHT22;16707;48.106;11.548;2023-04-25T07:20:38;9.10;99.90
29813;DHT22;16707;48.106;11.548;2023-04-25T07:23:05;9.20;99.90
29813;DHT22;16707;48.106;11.548;2023-04-25T07:25:33;9.30;99.90
29813;DHT22;16707;48.106;11.548;2023-04-25T07:28:00;9.30;99.90
29813;DHT22;16707;48.106;11.548;2023-04-25T07:30:28;9.50;99.90
29813;DHT22;16707;48.106;11.548;2023-04-25T07:32:55;9.60;99.90
29813;DHT22;16707;48.106;11.548;2023-04-25T07:35:22;9.80;99.90
29813;DHT22;16707;48.106;11.548;2023-04-25T07:37:49;10.10;99.90
29813;DHT22;16707;48.106;11.548;2023-04-25T07:40:18;10.50;99.90
29813;DHT22;16707;48.106;11.548;2023-04-25T07:42:47;10.80;99.90
29813;DHT22;16707;48.106;11.548;2023-04-25T07:45:14;11.10;99.90
29813;DHT22;16707;48.106;11.548;2023-04-25T07:47:44;11.10;99.90
29813;DHT22;16707;48.106;11.548;2023-04-25T07:50:11;11.00;99.90
29813;DHT22;16707;48.106;11.548;2023-04-25T07:52:38;11.20;99.90
29813;DHT22;16707;48.106;11.548;2023-04-25T07:55:06;11.10;99.90
29813;DHT22;16707;48.106;11.548;2023-04-25T07:57:33;10.80;99.90
29813;DHT22;16707;48.106;11.548;2023-04-25T08:00:02;10.50;99.90
29813;DHT22;16707;48.106;11.548;2023-04-25T08:02:29;10.40;99.90
29813;DHT22;16707;48.106;11.548;2023-04-25T08:04:59;10.40;99.90
29813;DHT22;16707;48.106;11.548;2023-04-25T08:07:29;10.70;99.90
29813;DHT22;16707;48.106;11.548;2023-04-25T08:10:00;11.30;99.00
29813;DHT22;16707;48.106;11.548;2023-04-25T08:12:28;11.90;97.30
29813;DHT22;16707;48.106;11.548;2023-04-25T08:15:00;12.00;97.40
29813;DHT22;16707;48.106;11.548;2023-04-25T08:17:28;12.10;95.40
29813;DHT22;16707;48.106;11.548;2023-04-25T08:19:56;12.70;94.50
29813;DHT22;16707;48.106;11.548;2023-04-25T08:22:23;13.40;92.70
29813;DHT22;16707;48.106;11.548;2023-04-25T08:24:50;13.20;90.60
29813;DHT22;16707;48.106;11.548;2023-04-25T08:27:17;13.10;89.30
29813;DHT22;16707;48.106;11.548;2023-04-25T08:29:44;13.00;88.70
29813;DHT22;16707;48.106;11.548;2023-04-25T08:32:11;13.00;88.50
29813;DHT22;16707;48.106;11.548;2023-04-25T08:34:39;12.60;87.80
29813;DHT22;16707;48.106;11.548;2023-04-25T08:37:08;12.10;89.00
29813;DHT22;16707;48.106;11.548;2023-04-25T08:39:41;12.00;90.80
29813;DHT22;16707;48.106;11.548;2023-04-25T08:42:12;12.10;90.80
29813;DHT22;16707;48.106;11.548;2023-04-25T08:44:39;12.10;91.80
29813;DHT22;16707;48.106;11.548;2023-04-25T08:47:06;12.50;92.00
29813;DHT22;16707;48.106;11.548;2023-04-25T08:49:34;12.90;91.20
29813;DHT22;16707;48.106;11.548;2023-04-25T08:52:04;12.90;89.50
29813;DHT22;16707;48.106;11.548;2023-04-25T08:54:32;13.00;90.20
29813;DHT22;16707;48.106;11.548;2023-04-25T08:57:03;12.50;85.90
29813;DHT22;16707;48.106;11.548;2023-04-25T08:59:31;12.50;86.10
29813;DHT22;16707;48.106;11.548;2023-04-25T09:01:59;12.40;82.90
29813;DHT22;16707;48.106;11.548;2023-04-25T09:04:29;12.20;82.40
29813;DHT22;16707;48.106;11.548;2023-04-25T09:07:00;12.30;84.80
29813;DHT22;16707;48.106;11.548;2023-04-25T09:09:29;12.30;82.60
29813;DHT22;16707;48.106;11.548;2023-04-25T09:11:57;12.40;86.00
29813;DHT22;16707;48.106;11.548;2023-04-25T09:14:25;12.70;88.50
29813;DHT22;16707;48.106;11.548;2023-04-25T09:17:01;12.50;81.40
29813;DHT22;16707;48.106;11.548;2023-04-25T09:19:31;12.40;81.60
29813;DHT22;16707;48.106;11.548;2023-04-25T09:22:04;12.30;79.00
29813;DHT22;16707;48.106;11.548;2023-04-25T09:24:35;12.30;79.50
29813;DHT22;16707;48.106;11.548;2023-04-25T09:27:08;12.50;84.40
29813;DHT22;16707;48.106;11.548;2023-04-25T09:29:37;13.00;81.10
29813;DHT22;16707;48.106;11.548;2023-04-25T09:32:15;13.50;76.60
29813;DHT22;16707;48.106;11.548;2023-04-25T09:34:46;13.40;71.40
29813;DHT22;16707;48.106;11.548;2023-04-25T09:37:20;13.40;73.80
29813;DHT22;16707;48.106;11.548;2023-04-25T09:39:55;13.30;72.60
29813;DHT22;16707;48.106;11.548;2023-04-25T09:42:23;13.20;74.00
29813;DHT22;16707;48.106;11.548;2023-04-25T09:44:55;13.30;74.20
29813;DHT22;16707;48.106;11.548;2023-04-25T09:47:23;13.50;72.10
29813;DHT22;16707;48.106;11.548;2023-04-25T09:49:51;13.70;72.10
29813;DHT22;16707;48.106;11.548;2023-04-25T09:52:20;13.70;68.20
29813;DHT22;16707;48.106;11.548;2023-04-25T09:54:48;13.60;68.60
29813;DHT22;16707;48.106;11.548;2023-04-25T09:57:19;13.60;69.10
29813;DHT22;16707;48.106;11.548;2023-04-25T09:59:47;13.60;69.70
29813;DHT22;16707;48.106;11.548;2023-04-25T10:02:16;13.10;70.10
29813;DHT22;16707;48.106;11.548;2023-04-25T10:04:48;13.10;72.70
29813;DHT22;16707;48.106;11.548;2023-04-25T10:07:16;13.10;73.70
29813;DHT22;16707;48.106;11.548;2023-04-25T10:09:48;12.80;70.70
29813;DHT22;16707;48.106;11.548;2023-04-25T10:12:17;12.70;75.20
29813;DHT22;16707;48.106;11.548;2023-04-25T10:14:44;12.90;73.00
29813;DHT22;16707;48.106;11.548;2023-04-25T10:17:14;12.90;71.60
29813;DHT22;16707;48.106;11.548;2023-04-25T10:19:41;12.80;73.40
29813;DHT22;16707;48.106;11.548;2023-04-25T10:22:13;13.20;74.00
29813;DHT22;16707;48.106;11.548;2023-04-25T10:24:45;13.60;74.20
29813;DHT22;16707;48.106;11.548;2023-04-25T10:27:13;14.10;68.20
29813;DHT22;16707;48.106;11.548;2023-04-25T10:29:42;14.50;67.80
29813;DHT22;16707;48.106;11.548;2023-04-25T10:32:10;14.90;66.90
29813;DHT22;16707;48.106;11.548;2023-04-25T10:34:41;14.80;65.50
29813;DHT22;16707;48.106;11.548;2023-04-25T10:37:15;14.60;65.30
29813;DHT22;16707;48.106;11.548;2023-04-25T10:39:45;13.80;67.10
29813;DHT22;16707;48.106;11.548;2023-04-25T10:42:12;13.00;70.20
29813;DHT22;16707;48.106;11.548;2023-04-25T10:44:39;12.00;69.60
29813;DHT22;16707;48.106;11.548;2023-04-25T10:47:08;11.70;71.60
29813;DHT22;16707;48.106;11.548;2023-04-25T10:49:37;11.40;73.60
29813;DHT22;16707;48.106;11.548;2023-04-25T10:52:15;11.30;77.80
29813;DHT22;16707;48.106;11.548;2023-04-25T10:54:45;11.30;79.90
29813;DHT22;16707;48.106;11.548;2023-04-25T10:57:36;11.30;82.60
29813;DHT22;16707;48.106;11.548;2023-04-25T11:00:09;11.10;84.90
29813;DHT22;16707;48.106;11.548;2023-04-25T11:02:41;11.10;86.50
29813;DHT22;16707;48.106;11.548;2023-04-25T11:05:09;11.20;89.70
29813;DHT22;16707;48.106;11.548;2023-04-25T11:07:45;11.30;90.20
29813;DHT22;16707;48.106;11.548;2023-04-25T11:10:15;11.30;90.60
29813;DHT22;16707;48.106;11.548;2023-04-25T11:12:43;11.40;89.90
29813;DHT22;16707;48.106;11.548;2023-04-25T11:15:17;11.60;87.80
29813;DHT22;16707;48.106;11.548;2023-04-25T11:17:45;12.20;84.20
29813;DHT22;16707;48.106;11.548;2023-04-25T11:20:13;12.30;77.80
29813;DHT22;16707;48.106;11.548;2023-04-25T11:22:41;12.50;77.30
29813;DHT22;16707;48.106;11.548;2023-04-25T11:25:15;12.50;75.50
29813;DHT22;16707;48.106;11.548;2023-04-25T11:27:54;12.40;76.50
29813;DHT22;16707;48.106;11.548;2023-04-25T11:30:25;12.00;77.60
29813;DHT22;16707;48.106;11.548;2023-04-25T11:32:55;11.40;80.70
29813;DHT22;16707;48.106;11.548;2023-04-25T11:35:25;11.30;83.90
29813;DHT22;16707;48.106;11.548;2023-04-25T11:37:55;11.50;84.50
29813;DHT22;16707;48.106;11.548;2023-04-25T11:40:26;11.70;83.50
29813;DHT22;16707;48.106;11.548;2023-04-25T11:42:55;11.40;85.10
29813;DHT22;16707;48.106;11.548;2023-04-25T11:45:23;11.60;87.50
29813;DHT22;16707;48.106;11.548;2023-04-25T11:47:57;11.70;87.10
29813;DHT22;16707;48.106;11.548;2023-04-25T11:50:24;11.90;91.00
29813;DHT22;16707;48.106;11.548;2023-04-25T11:52:51;11.80;91.70
29813;DHT22;16707;48.106;11.548;2023-04-25T11:55:23;11.60;92.20
29813;DHT22;16707;48.106;11.548;2023-04-25T11:57:53;11.20;93.00
29813;DHT22;16707;48.106;11.548;2023-04-25T12:00:36;11.20;93.60
29813;DHT22;16707;48.106;11.548;2023-04-25T12:03:04;11.10;93.70
29813;DHT22;16707;48.106;11.548;2023-04-25T12:05:31;11.00;93.70
29813;DHT22;16707;48.106;11.548;2023-04-25T12:08:12;10.80;94.50
29813;DHT22;16707;48.106;11.548;2023-04-25T12:10:45;10.80;95.60
29813;DHT22;16707;48.106;11.548;2023-04-25T12:13:20;10.90;95.10
29813;DHT22;16707;48.106;11.548;2023-04-25T12:15:48;10.70;95.10
29813;DHT22;16707;48.106;11.548;2023-04-25T12:18:19;10.60;95.60
29813;DHT22;16707;48.106;11.548;2023-04-25T12:20:47;10.70;95.90
29813;DHT22;16707;48.106;11.548;2023-04-25T12:23:14;10.80;96.60
29813;DHT22;16707;48.106;11.548;2023-04-25T12:25:42;10.50;95.60
29813;DHT22;16707;48.106;11.548;2023-04-25T12:28:18;10.40;96.30
29813;DHT22;16707;48.106;11.548;2023-04-25T12:31:02;10.30;97.30
29813;DHT22;16707;48.106;11.548;2023-04-25T12:33:32;10.10;96.50
29813;DHT22;16707;48.106;11.548;2023-04-25T12:36:01;10.10;97.20
29813;DHT22;16707;48.106;11.548;2023-04-25T12:38:36;10.30;98.00
29813;DHT22;16707;48.106;11.548;2023-04-25T12:41:06;10.50;97.30
29813;DHT22;16707;48.106;11.548;2023-04-25T12:43:36;10.60;96.90
29813;DHT22;16707;48.106;11.548;2023-04-25T12:46:05;10.60;95.40
29813;DHT22;16707;48.106;11.548;2023-04-25T12:48:33;10.60;96.40
29813;DHT22;16707;48.106;11.548;2023-04-25T12:51:00;10.80;96.10
29813;DHT22;16707;48.106;11.548;2023-04-25T12:53:27;10.80;96.60
29813;DHT22;16707;48.106;11.548;2023-04-25T12:55:54;10.80;95.70
29813;DHT22;16707;48.106;11.548;2023-04-25T12:58:26;10.50;96.20
29813;DHT22;16707;48.106;11.548;2023-04-25T13:00:53;10.60;95.90
29813;DHT22;16707;48.106;11.548;2023-04-25T13:03:20;10.20;96.00
29813;DHT22;16707;48.106;11.548;2023-04-25T13:05:48;10.10;96.50
29813;DHT22;16707;48.106;11.548;2023-04-25T13:08:15;10.00;96.40
29813;DHT22;16707;48.106;11.548;2023-04-25T13:10:42;9.90;96.60
29813;DHT22;16707;48.106;11.548;2023-04-25T13:13:09;10.10;96.80
29813;DHT22;16707;48.106;11.548;2023-04-25T13:15:37;10.00;96.70
29813;DHT22;16707;48.106;11.548;2023-04-25T13:18:04;10.00;97.50
29813;DHT22;16707;48.106;11.548;2023-04-25T13:20:32;10.00;97.50
29813;DHT22;16707;48.106;11.548;2023-04-25T13:23:01;10.00;97.70
29813;DHT22;16707;48.106;11.548;2023-04-25T13:25:28;9.90;98.20
29813;DHT22;16707;48.106;11.548;2023-04-25T13:27:55;10.00;99.10
29813;DHT22;16707;48.106;11.548;2023-04-25T13:30:22;9.90;98.20
29813;DHT22;16707;48.106;11.548;2023-04-25T13:32:55;9.80;99.90
29813;DHT22;16707;48.106;11.548;2023-04-25T13:35:37;9.90;99.90
29813;DHT22;16707;48.106;11.548;2023-04-25T13:38:13;9.80;99.90
29813;DHT22;16707;48.106;11.548;2023-04-25T13:40:41;10.20;99.90
29813;DHT22;16707;48.106;11.548;2023-04-25T13:43:08;10.30;99.90
29813;DHT22;16707;48.106;11.548;2023-04-25T13:45:38;10.00;99.30
29813;DHT22;16707;48.106;11.548;2023-04-25T13:48:11;9.60;99.90
29813;DHT22;16707;48.106;11.548;2023-04-25T13:50:38;9.30;99.90
29813;DHT22;16707;48.106;11.548;2023-04-25T13:53:07;9.00;99.90
29813;DHT22;16707;48.106;11.548;2023-04-25T13:55:42;8.70;99.90
29813;DHT22;16707;48.106;11.548;2023-04-25T13:58:09;8.80;99.90
29813;DHT22;16707;48.106;11.548;2023-04-25T14:00:37;9.00;99.90
29813;DHT22;16707;48.106;11.548;2023-04-25T14:03:08;9.10;99.90
29813;DHT22;16707;48.106;11.548;2023-04-25T14:05:36;9.00;99.90
29813;DHT22;16707;48.106;11.548;2023-04-25T14:08:09;9.10;99.90
29813;DHT22;16707;48.106;11.548;2023-04-25T14:10:37;9.00;99.90
29813;DHT22;16707;48.106;11.548;2023-04-25T14:13:04;8.80;99.90
29813;DHT22;16707;48.106;11.548;2023-04-25T14:15:32;8.60;99.90
29813;DHT22;16707;48.106;11.548;2023-04-25T14:18:00;8.40;99.90
29813;DHT22;16707;48.106;11.548;2023-04-25T14:20:30;8.60;99.90
29813;DHT22;16707;48.106;11.548;2023-04-25T14:22:59;8.40;99.90
29813;DHT22;16707;48.106;11.548;2023-04-25T14:25:27;8.90;99.90
29813;DHT22;16707;48.106;11.548;2023-04-25T14:27:59;8.80;99.90
29813;DHT22;16707;48.106;11.548;2023-04-25T14:30:27;9.10;99.90
29813;DHT22;16707;48.106;11.548;2023-04-25T14:32:56;9.50;99.90
29813;DHT22;16707;48.106;11.548;2023-04-25T14:35:23;9.70;99.90
29813;DHT22;16707;48.106;11.548;2023-04-25T14:37:50;9.70;99.90
29813;DHT22;16707;48.106;11.548;2023-04-25T14:40:17;9.90;99.90
29813;DHT22;16707;48.106;11.548;2023-04-25T14:42:51;10.00;99.90
29813;DHT22;16707;48.106;11.548;2023-04-25T14:45:20;9.80;99.90
29813;DHT22;16707;48.106;11.548;2023-04-25T14:47:49;10.00;99.90
29813;DHT22;16707;48.106;11.548;2023-04-25T14:50:21;10.30;99.90
29813;DHT22;16707;48.106;11.548;2023-04-25T14:52:48;10.50;99.90
29813;DHT22;16707;48.106;11.548;2023-04-25T14:55:15;10.50;99.90
29813;DHT22;16707;48.106;11.548;2023-04-25T14:57:43;10.40;99.50
29813;DHT22;16707;48.106;11.548;2023-04-25T15:00:14;10.30;99.50
29813;DHT22;16707;48.106;11.548;2023-04-25T15:02:46;10.20;99.90
29813;DHT22;16707;48.106;11.548;2023-04-25T15:05:13;10.10;99.90
29813;DHT22;16707;48.106;11.548;2023-04-25T15:07:40;10.00;99.90
29813;DHT22;16707;48.106;11.548;2023-04-25T15:10:11;10.10;99.90
29813;DHT22;16707;48.106;11.548;2023-04-25T15:12:41;10.00;99.90
29813;DHT22;16707;48.106;11.548;2023-04-25T15:15:09;10.00;99.90
29813;DHT22;16707;48.106;11.548;2023-04-25T15:17:45;10.10;99.90
29813;DHT22;16707;48.106;11.548;2023-04-25T15:20:13;10.20;99.90
29813;DHT22;16707;48.106;11.548;2023-04-25T15:22:41;10.10;99.90
29813;DHT22;16707;48.106;11.548;2023-04-25T15:25:14;10.00;99.90
29813;DHT22;16707;48.106;11.548;2023-04-25T15:27:43;10.00;99.90
29813;DHT22;16707;48.106;11.548;2023-04-25T15:30:18;10.20;99.90
29813;DHT22;16707;48.106;11.548;2023-04-25T15:32:53;10.10;99.90
29813;DHT22;16707;48.106;11.548;2023-04-25T15:35:20;10.00;99.90
29813;DHT22;16707;48.106;11.548;2023-04-25T15:37:54;9.80;99.90
29813;DHT22;16707;48.106;11.548;2023-04-25T15:40:21;10.00;99.90
29813;DHT22;16707;48.106;11.548;2023-04-25T15:42:49;10.20;99.90